sensor_id;sensor_type;location;lat;lon;timestamp;P1;durP1;ratioP1;P2;durP2;ratioP2
1336;SDS011;662;48.814;9.318;2022-08-04T00:01:24;3.50;;;2.40;;
1336;SDS011;662;48.814;9.318;2022-08-04T00:03:54;2.73;;;2.53;;
1336;SDS011;662;48.814;9.318;2022-08-04T00:06:43;3.37;;;2.27;;
1336;SDS011;662;48.814;9.318;2022-08-04T00:11:52;3.00;;;2.23;;
1336;SDS011;662;48.814;9.318;2022-08-04T00:14:21;3.97;;;2.67;;
1336;SDS011;662;48.814;9.318;2022-08-04T00:16:48;3.63;;;2.60;;
1336;SDS011;662;48.814;9.318;2022-08-04T00:19:23;2.70;;;2.50;;
1336;SDS011;662;48.814;9.318;2022-08-04T00:21:55;2.80;;;2.33;;
1336;SDS011;662;48.814;9.318;2022-08-04T00:24:24;3.83;;;2.60;;
1336;SDS011;662;48.814;9.318;2022-08-04T00:26:53;2.50;;;2.30;;
1336;SDS011;662;48.814;9.318;2022-08-04T00:29:19;2.43;;;2.23;;
1336;SDS011;662;48.814;9.318;2022-08-04T00:31:46;3.50;;;2.57;;
1336;SDS011;662;48.814;9.318;2022-08-04T00:34:12;6.67;;;2.80;;
1336;SDS011;662;48.814;9.318;2022-08-04T00:36:39;2.60;;;2.40;;
1336;SDS011;662;48.814;9.318;2022-08-04T00:39:08;2.87;;;2.67;;
1336;SDS011;662;48.814;9.318;2022-08-04T00:50:08;2.70;;;2.47;;
1336;SDS011;662;48.814;9.318;2022-08-04T00:55:46;3.30;;;2.40;;
1336;SDS011;662;48.814;9.318;2022-08-04T01:07:20;2.40;;;2.20;;
1336;SDS011;662;48.814;9.318;2022-08-04T01:10:32;2.80;;;2.60;;
1336;SDS011;662;48.814;9.318;2022-08-04T01:15:52;3.10;;;2.50;;
1336;SDS011;662;48.814;9.318;2022-08-04T01:18:29;5.10;;;2.30;;
1336;SDS011;662;48.814;9.318;2022-08-04T01:31:12;2.67;;;2.47;;
1336;SDS011;662;48.814;9.318;2022-08-04T01:33:45;2.43;;;2.33;;
1336;SDS011;662;48.814;9.318;2022-08-04T01:36:14;2.50;;;2.30;;
1336;SDS011;662;48.814;9.318;2022-08-04T01:38:40;2.77;;;2.43;;
1336;SDS011;662;48.814;9.318;2022-08-04T01:41:08;3.43;;;2.87;;
1336;SDS011;662;48.814;9.318;2022-08-04T01:43:41;4.03;;;2.67;;
1336;SDS011;662;48.814;9.318;2022-08-04T01:46:09;4.17;;;3.77;;
1336;SDS011;662;48.814;9.318;2022-08-04T01:48:37;11.20;;;7.80;;
1336;SDS011;662;48.814;9.318;2022-08-04T01:51:06;16.20;;;8.97;;
1336;SDS011;662;48.814;9.318;2022-08-04T01:53:33;19.43;;;11.37;;
1336;SDS011;662;48.814;9.318;2022-08-04T01:56:03;22.90;;;14.70;;
1336;SDS011;662;48.814;9.318;2022-08-04T01:58:31;22.83;;;12.27;;
1336;SDS011;662;48.814;9.318;2022-08-04T02:01:02;14.47;;;8.20;;
1336;SDS011;662;48.814;9.318;2022-08-04T02:03:28;11.57;;;7.57;;
1336;SDS011;662;48.814;9.318;2022-08-04T02:12:08;4.40;;;3.40;;
1336;SDS011;662;48.814;9.318;2022-08-04T02:20:22;2.57;;;2.37;;
1336;SDS011;662;48.814;9.318;2022-08-04T02:22:52;2.60;;;2.40;;
1336;SDS011;662;48.814;9.318;2022-08-04T02:25:26;2.50;;;2.30;;
1336;SDS011;662;48.814;9.318;2022-08-04T02:30:56;2.67;;;2.47;;
1336;SDS011;662;48.814;9.318;2022-08-04T02:33:35;2.47;;;2.27;;
1336;SDS011;662;48.814;9.318;2022-08-04T02:36:04;2.40;;;2.20;;
1336;SDS011;662;48.814;9.318;2022-08-04T02:41:14;2.63;;;2.43;;
1336;SDS011;662;48.814;9.318;2022-08-04T02:43:42;2.47;;;2.30;;
1336;SDS011;662;48.814;9.318;2022-08-04T02:46:11;4.57;;;2.33;;
1336;SDS011;662;48.814;9.318;2022-08-04T02:48:37;2.37;;;2.17;;
1336;SDS011;662;48.814;9.318;2022-08-04T02:51:06;2.90;;;2.60;;
1336;SDS011;662;48.814;9.318;2022-08-04T02:53:32;4.77;;;3.67;;
1336;SDS011;662;48.814;9.318;2022-08-04T02:56:02;4.27;;;3.87;;
1336;SDS011;662;48.814;9.318;2022-08-04T02:58:31;6.10;;;4.90;;
1336;SDS011;662;48.814;9.318;2022-08-04T03:00:59;4.93;;;4.00;;
1336;SDS011;662;48.814;9.318;2022-08-04T03:03:30;6.80;;;4.60;;
1336;SDS011;662;48.814;9.318;2022-08-04T03:45:55;3.50;;;3.10;;
1336;SDS011;662;48.814;9.318;2022-08-04T04:00:24;4.17;;;3.70;;
1336;SDS011;662;48.814;9.318;2022-08-04T04:11:27;3.80;;;3.07;;
1336;SDS011;662;48.814;9.318;2022-08-04T04:14:14;5.03;;;3.33;;
1336;SDS011;662;48.814;9.318;2022-08-04T04:22:43;8.00;;;3.30;;
1336;SDS011;662;48.814;9.318;2022-08-04T04:25:24;3.43;;;3.13;;
1336;SDS011;662;48.814;9.318;2022-08-04T04:30:37;3.10;;;2.70;;
1336;SDS011;662;48.814;9.318;2022-08-04T04:33:18;4.90;;;3.13;;
1336;SDS011;662;48.814;9.318;2022-08-04T04:36:25;5.77;;;3.67;;
1336;SDS011;662;48.814;9.318;2022-08-04T04:47:24;2.90;;;2.70;;
1336;SDS011;662;48.814;9.318;2022-08-04T04:53:03;3.30;;;3.00;;
1336;SDS011;662;48.814;9.318;2022-08-04T04:55:51;2.97;;;2.67;;
1336;SDS011;662;48.814;9.318;2022-08-04T04:58:23;3.20;;;2.90;;
1336;SDS011;662;48.814;9.318;2022-08-04T05:06:49;3.60;;;2.70;;
1336;SDS011;662;48.814;9.318;2022-08-04T05:09:42;2.50;;;2.30;;
1336;SDS011;662;48.814;9.318;2022-08-04T05:15:20;4.03;;;2.93;;
1336;SDS011;662;48.814;9.318;2022-08-04T05:17:51;6.30;;;2.87;;
1336;SDS011;662;48.814;9.318;2022-08-04T05:20:21;4.60;;;3.03;;
1336;SDS011;662;48.814;9.318;2022-08-04T05:22:55;2.90;;;2.53;;
1336;SDS011;662;48.814;9.318;2022-08-04T05:25:35;3.37;;;2.63;;
1336;SDS011;662;48.814;9.318;2022-08-04T05:28:09;16.70;;;3.20;;
1336;SDS011;662;48.814;9.318;2022-08-04T05:30:41;7.43;;;3.10;;
1336;SDS011;662;48.814;9.318;2022-08-04T05:33:18;3.00;;;2.80;;
1336;SDS011;662;48.814;9.318;2022-08-04T05:35:51;6.20;;;3.00;;
1336;SDS011;662;48.814;9.318;2022-08-04T05:38:21;5.60;;;2.70;;
1336;SDS011;662;48.814;9.318;2022-08-04T05:40:51;4.53;;;2.50;;
1336;SDS011;662;48.814;9.318;2022-08-04T05:43:18;6.10;;;3.27;;
1336;SDS011;662;48.814;9.318;2022-08-04T05:45:44;2.70;;;2.50;;
1336;SDS011;662;48.814;9.318;2022-08-04T05:48:13;4.00;;;3.23;;
1336;SDS011;662;48.814;9.318;2022-08-04T05:50:39;2.80;;;2.60;;
1336;SDS011;662;48.814;9.318;2022-08-04T05:53:05;3.10;;;2.80;;
1336;SDS011;662;48.814;9.318;2022-08-04T05:55:34;5.53;;;2.97;;
1336;SDS011;662;48.814;9.318;2022-08-04T05:58:00;4.00;;;2.73;;
1336;SDS011;662;48.814;9.318;2022-08-04T06:00:26;2.67;;;2.47;;
1336;SDS011;662;48.814;9.318;2022-08-04T06:02:53;3.13;;;2.93;;
1336;SDS011;662;48.814;9.318;2022-08-04T06:05:21;2.93;;;2.70;;
1336;SDS011;662;48.814;9.318;2022-08-04T06:07:48;6.53;;;3.00;;
1336;SDS011;662;48.814;9.318;2022-08-04T06:10:14;5.37;;;3.10;;
1336;SDS011;662;48.814;9.318;2022-08-04T06:15:06;5.13;;;3.50;;
1336;SDS011;662;48.814;9.318;2022-08-04T06:17:38;17.50;;;4.20;;
1336;SDS011;662;48.814;9.318;2022-08-04T06:20:06;4.10;;;3.10;;
1336;SDS011;662;48.814;9.318;2022-08-04T06:22:33;4.77;;;4.07;;
1336;SDS011;662;48.814;9.318;2022-08-04T06:25:03;7.80;;;4.03;;
1336;SDS011;662;48.814;9.318;2022-08-04T06:27:31;7.60;;;3.90;;
1336;SDS011;662;48.814;9.318;2022-08-04T06:29:57;4.10;;;3.53;;
1336;SDS011;662;48.814;9.318;2022-08-04T06:32:25;3.63;;;3.33;;
1336;SDS011;662;48.814;9.318;2022-08-04T06:34:53;4.57;;;3.60;;
1336;SDS011;662;48.814;9.318;2022-08-04T06:37:21;5.27;;;3.10;;
1336;SDS011;662;48.814;9.318;2022-08-04T06:39:49;5.93;;;3.20;;
1336;SDS011;662;48.814;9.318;2022-08-04T06:42:16;5.40;;;3.50;;
1336;SDS011;662;48.814;9.318;2022-08-04T06:44:43;3.47;;;2.80;;
1336;SDS011;662;48.814;9.318;2022-08-04T06:47:13;5.40;;;3.27;;
1336;SDS011;662;48.814;9.318;2022-08-04T06:49:43;4.57;;;3.30;;
1336;SDS011;662;48.814;9.318;2022-08-04T06:52:09;3.83;;;3.07;;
1336;SDS011;662;48.814;9.318;2022-08-04T06:54:41;3.10;;;2.80;;
1336;SDS011;662;48.814;9.318;2022-08-04T06:57:10;3.20;;;2.90;;
1336;SDS011;662;48.814;9.318;2022-08-04T06:59:43;5.80;;;3.30;;
1336;SDS011;662;48.814;9.318;2022-08-04T07:02:13;3.13;;;2.83;;
1336;SDS011;662;48.814;9.318;2022-08-04T07:04:43;2.87;;;2.67;;
1336;SDS011;662;48.814;9.318;2022-08-04T07:07:10;3.40;;;3.10;;
1336;SDS011;662;48.814;9.318;2022-08-04T07:09:37;5.37;;;3.00;;
1336;SDS011;662;48.814;9.318;2022-08-04T07:12:04;2.63;;;2.43;;
1336;SDS011;662;48.814;9.318;2022-08-04T07:14:31;3.57;;;3.23;;
1336;SDS011;662;48.814;9.318;2022-08-04T07:17:01;4.23;;;2.90;;
1336;SDS011;662;48.814;9.318;2022-08-04T07:19:31;2.80;;;2.43;;
1336;SDS011;662;48.814;9.318;2022-08-04T07:21:59;2.93;;;2.63;;
1336;SDS011;662;48.814;9.318;2022-08-04T07:24:31;4.70;;;2.33;;
1336;SDS011;662;48.814;9.318;2022-08-04T07:26:59;2.87;;;2.67;;
1336;SDS011;662;48.814;9.318;2022-08-04T07:29:25;3.70;;;2.50;;
1336;SDS011;662;48.814;9.318;2022-08-04T07:31:52;3.03;;;2.63;;
1336;SDS011;662;48.814;9.318;2022-08-04T07:34:19;2.53;;;2.33;;
1336;SDS011;662;48.814;9.318;2022-08-04T07:36:46;3.30;;;2.40;;
1336;SDS011;662;48.814;9.318;2022-08-04T07:39:15;3.10;;;2.77;;
1336;SDS011;662;48.814;9.318;2022-08-04T07:41:41;3.10;;;2.77;;
1336;SDS011;662;48.814;9.318;2022-08-04T07:44:08;2.60;;;2.40;;
1336;SDS011;662;48.814;9.318;2022-08-04T07:46:37;2.77;;;2.33;;
1336;SDS011;662;48.814;9.318;2022-08-04T07:49:03;2.30;;;2.20;;
1336;SDS011;662;48.814;9.318;2022-08-04T07:51:30;3.00;;;2.50;;
1336;SDS011;662;48.814;9.318;2022-08-04T07:53:57;2.30;;;2.10;;
1336;SDS011;662;48.814;9.318;2022-08-04T07:56:25;4.10;;;2.00;;
1336;SDS011;662;48.814;9.318;2022-08-04T07:58:51;2.30;;;2.20;;
1336;SDS011;662;48.814;9.318;2022-08-04T08:01:20;2.40;;;2.20;;
1336;SDS011;662;48.814;9.318;2022-08-04T08:03:47;2.83;;;2.50;;
1336;SDS011;662;48.814;9.318;2022-08-04T08:06:14;2.77;;;1.90;;
1336;SDS011;662;48.814;9.318;2022-08-04T08:08:40;2.67;;;2.20;;
1336;SDS011;662;48.814;9.318;2022-08-04T08:11:06;3.60;;;2.30;;
1336;SDS011;662;48.814;9.318;2022-08-04T08:13:32;2.67;;;2.37;;
1336;SDS011;662;48.814;9.318;2022-08-04T08:15:59;3.53;;;2.00;;
1336;SDS011;662;48.814;9.318;2022-08-04T08:18:26;4.37;;;2.23;;
1336;SDS011;662;48.814;9.318;2022-08-04T08:20:51;4.23;;;3.50;;
1336;SDS011;662;48.814;9.318;2022-08-04T08:23:17;3.60;;;2.40;;
1336;SDS011;662;48.814;9.318;2022-08-04T08:25:44;3.27;;;2.43;;
1336;SDS011;662;48.814;9.318;2022-08-04T08:28:12;3.77;;;2.40;;
1336;SDS011;662;48.814;9.318;2022-08-04T08:30:40;3.13;;;2.53;;
1336;SDS011;662;48.814;9.318;2022-08-04T08:33:07;3.83;;;2.33;;
1336;SDS011;662;48.814;9.318;2022-08-04T08:38:28;4.10;;;2.30;;
1336;SDS011;662;48.814;9.318;2022-08-04T08:41:16;2.30;;;2.10;;
1336;SDS011;662;48.814;9.318;2022-08-04T08:51:43;5.30;;;2.97;;
1336;SDS011;662;48.814;9.318;2022-08-04T09:00:38;2.63;;;2.43;;
1336;SDS011;662;48.814;9.318;2022-08-04T09:11:04;3.17;;;1.93;;
1336;SDS011;662;48.814;9.318;2022-08-04T09:13:50;2.10;;;1.90;;
1336;SDS011;662;48.814;9.318;2022-08-04T09:16:37;3.93;;;1.90;;
1336;SDS011;662;48.814;9.318;2022-08-04T09:19:14;1.90;;;1.80;;
1336;SDS011;662;48.814;9.318;2022-08-04T09:29:33;2.80;;;1.90;;
1336;SDS011;662;48.814;9.318;2022-08-04T09:32:07;4.30;;;2.53;;
1336;SDS011;662;48.814;9.318;2022-08-04T09:45:41;2.70;;;2.50;;
1336;SDS011;662;48.814;9.318;2022-08-04T09:48:34;2.33;;;2.23;;
1336;SDS011;662;48.814;9.318;2022-08-04T09:51:16;2.20;;;2.10;;
1336;SDS011;662;48.814;9.318;2022-08-04T09:56:59;2.80;;;2.60;;
1336;SDS011;662;48.814;9.318;2022-08-04T09:59:47;2.47;;;2.27;;
1336;SDS011;662;48.814;9.318;2022-08-04T10:02:22;2.80;;;2.50;;
1336;SDS011;662;48.814;9.318;2022-08-04T10:04:49;5.43;;;2.50;;
1336;SDS011;662;48.814;9.318;2022-08-04T10:07:31;2.70;;;2.50;;
1336;SDS011;662;48.814;9.318;2022-08-04T10:15:42;2.50;;;2.30;;
1336;SDS011;662;48.814;9.318;2022-08-04T10:21:02;2.30;;;2.20;;
1336;SDS011;662;48.814;9.318;2022-08-04T10:24:00;2.50;;;2.30;;
1336;SDS011;662;48.814;9.318;2022-08-04T10:29:36;2.80;;;2.60;;
1336;SDS011;662;48.814;9.318;2022-08-04T10:32:14;6.32;;;2.10;;
1336;SDS011;662;48.814;9.318;2022-08-04T10:37:20;2.47;;;2.28;;
1336;SDS011;662;48.814;9.318;2022-08-04T10:39:58;4.20;;;2.10;;
1336;SDS011;662;48.814;9.318;2022-08-04T10:43:01;2.10;;;2.00;;
1336;SDS011;662;48.814;9.318;2022-08-04T10:45:37;2.03;;;1.92;;
1336;SDS011;662;48.814;9.318;2022-08-04T10:53:49;2.30;;;2.20;;
1336;SDS011;662;48.814;9.318;2022-08-04T10:56:25;2.60;;;2.40;;
1336;SDS011;662;48.814;9.318;2022-08-04T10:59:05;2.30;;;2.10;;
1336;SDS011;662;48.814;9.318;2022-08-04T11:01:39;2.17;;;2.08;;
1336;SDS011;662;48.814;9.318;2022-08-04T11:04:14;2.35;;;2.10;;
1336;SDS011;662;48.814;9.318;2022-08-04T11:06:44;2.33;;;1.80;;
1336;SDS011;662;48.814;9.318;2022-08-04T11:09:10;3.08;;;2.00;;
1336;SDS011;662;48.814;9.318;2022-08-04T11:11:42;2.58;;;2.20;;
1336;SDS011;662;48.814;9.318;2022-08-04T11:14:14;2.67;;;2.50;;
1336;SDS011;662;48.814;9.318;2022-08-04T11:30:11;4.45;;;2.22;;
1336;SDS011;662;48.814;9.318;2022-08-04T11:32:42;4.25;;;2.08;;
1336;SDS011;662;48.814;9.318;2022-08-04T11:35:33;2.20;;;2.00;;
1336;SDS011;662;48.814;9.318;2022-08-04T11:40:52;1.95;;;1.80;;
1336;SDS011;662;48.814;9.318;2022-08-04T11:43:35;2.55;;;2.00;;
1336;SDS011;662;48.814;9.318;2022-08-04T11:46:11;2.20;;;2.03;;
1336;SDS011;662;48.814;9.318;2022-08-04T11:49:02;4.07;;;1.80;;
1336;SDS011;662;48.814;9.318;2022-08-04T11:51:32;2.20;;;2.00;;
1336;SDS011;662;48.814;9.318;2022-08-04T11:53:59;2.45;;;1.70;;
1336;SDS011;662;48.814;9.318;2022-08-04T11:56:25;2.30;;;2.10;;
1336;SDS011;662;48.814;9.318;2022-08-04T11:58:53;2.50;;;2.30;;
1336;SDS011;662;48.814;9.318;2022-08-04T12:01:25;3.35;;;2.13;;
1336;SDS011;662;48.814;9.318;2022-08-04T12:12:38;2.42;;;1.80;;
1336;SDS011;662;48.814;9.318;2022-08-04T12:15:22;2.30;;;2.10;;
1336;SDS011;662;48.814;9.318;2022-08-04T12:21:01;2.78;;;2.05;;
1336;SDS011;662;48.814;9.318;2022-08-04T12:23:32;1.88;;;1.75;;
1336;SDS011;662;48.814;9.318;2022-08-04T12:26:05;2.20;;;2.10;;
1336;SDS011;662;48.814;9.318;2022-08-04T12:28:39;2.53;;;2.10;;
1336;SDS011;662;48.814;9.318;2022-08-04T12:31:29;2.25;;;2.15;;
1336;SDS011;662;48.814;9.318;2022-08-04T12:36:37;4.18;;;2.10;;
1336;SDS011;662;48.814;9.318;2022-08-04T12:39:15;2.35;;;2.25;;
1336;SDS011;662;48.814;9.318;2022-08-04T12:42:02;2.90;;;2.03;;
1336;SDS011;662;48.814;9.318;2022-08-04T12:44:37;2.42;;;2.22;;
1336;SDS011;662;48.814;9.318;2022-08-04T12:47:08;1.90;;;1.80;;
1336;SDS011;662;48.814;9.318;2022-08-04T12:49:36;2.38;;;2.17;;
1336;SDS011;662;48.814;9.318;2022-08-04T12:52:06;2.38;;;2.17;;
1336;SDS011;662;48.814;9.318;2022-08-04T12:54:33;2.47;;;2.17;;
1336;SDS011;662;48.814;9.318;2022-08-04T12:57:03;2.20;;;2.00;;
1336;SDS011;662;48.814;9.318;2022-08-04T12:59:35;3.20;;;2.08;;
1336;SDS011;662;48.814;9.318;2022-08-04T13:02:03;2.20;;;2.00;;
1336;SDS011;662;48.814;9.318;2022-08-04T13:04:30;2.15;;;1.80;;
1336;SDS011;662;48.814;9.318;2022-08-04T13:07:01;2.45;;;1.90;;
1336;SDS011;662;48.814;9.318;2022-08-04T13:09:32;2.28;;;2.17;;
1336;SDS011;662;48.814;9.318;2022-08-04T13:12:02;2.65;;;2.45;;
1336;SDS011;662;48.814;9.318;2022-08-04T13:14:35;2.08;;;1.98;;
1336;SDS011;662;48.814;9.318;2022-08-04T13:17:04;2.20;;;2.00;;
1336;SDS011;662;48.814;9.318;2022-08-04T13:19:30;1.98;;;1.88;;
1336;SDS011;662;48.814;9.318;2022-08-04T13:21:57;1.95;;;1.85;;
1336;SDS011;662;48.814;9.318;2022-08-04T13:24:24;2.22;;;2.03;;
1336;SDS011;662;48.814;9.318;2022-08-04T13:27:05;2.65;;;2.25;;
1336;SDS011;662;48.814;9.318;2022-08-04T13:29:40;2.40;;;2.30;;
1336;SDS011;662;48.814;9.318;2022-08-04T13:32:08;3.92;;;1.88;;
1336;SDS011;662;48.814;9.318;2022-08-04T13:34:35;2.58;;;2.38;;
1336;SDS011;662;48.814;9.318;2022-08-04T13:37:04;2.30;;;2.20;;
1336;SDS011;662;48.814;9.318;2022-08-04T13:39:31;2.30;;;2.20;;
1336;SDS011;662;48.814;9.318;2022-08-04T13:42:02;2.33;;;2.13;;
1336;SDS011;662;48.814;9.318;2022-08-04T13:44:34;2.38;;;2.28;;
1336;SDS011;662;48.814;9.318;2022-08-04T13:47:05;2.42;;;2.08;;
1336;SDS011;662;48.814;9.318;2022-08-04T13:49:35;2.45;;;2.28;;
1336;SDS011;662;48.814;9.318;2022-08-04T13:52:01;2.30;;;2.10;;
1336;SDS011;662;48.814;9.318;2022-08-04T13:54:36;2.40;;;2.30;;
1336;SDS011;662;48.814;9.318;2022-08-04T13:57:05;3.45;;;2.53;;
1336;SDS011;662;48.814;9.318;2022-08-04T13:59:43;2.00;;;1.90;;
1336;SDS011;662;48.814;9.318;2022-08-04T14:02:25;3.00;;;2.70;;
1336;SDS011;662;48.814;9.318;2022-08-04T14:05:13;3.20;;;2.10;;
1336;SDS011;662;48.814;9.318;2022-08-04T14:08:04;3.47;;;2.20;;
1336;SDS011;662;48.814;9.318;2022-08-04T14:10:41;2.50;;;2.30;;
1336;SDS011;662;48.814;9.318;2022-08-04T14:13:16;2.85;;;2.65;;
1336;SDS011;662;48.814;9.318;2022-08-04T14:15:54;2.22;;;2.03;;
1336;SDS011;662;48.814;9.318;2022-08-04T14:18:21;3.35;;;2.50;;
1336;SDS011;662;48.814;9.318;2022-08-04T14:21:02;3.78;;;2.40;;
1336;SDS011;662;48.814;9.318;2022-08-04T14:23:42;2.53;;;2.33;;
1336;SDS011;662;48.814;9.318;2022-08-04T14:26:20;2.55;;;2.35;;
1336;SDS011;662;48.814;9.318;2022-08-04T14:28:51;2.53;;;2.33;;
1336;SDS011;662;48.814;9.318;2022-08-04T14:31:21;4.80;;;2.60;;
1336;SDS011;662;48.814;9.318;2022-08-04T14:33:49;2.13;;;2.03;;
1336;SDS011;662;48.814;9.318;2022-08-04T14:36:17;2.33;;;2.22;;
1336;SDS011;662;48.814;9.318;2022-08-04T14:38:53;2.50;;;2.35;;
1336;SDS011;662;48.814;9.318;2022-08-04T14:41:28;4.30;;;2.42;;
1336;SDS011;662;48.814;9.318;2022-08-04T14:44:07;2.88;;;2.45;;
1336;SDS011;662;48.814;9.318;2022-08-04T14:46:33;2.50;;;2.30;;
1336;SDS011;662;48.814;9.318;2022-08-04T14:49:03;2.72;;;2.53;;
1336;SDS011;662;48.814;9.318;2022-08-04T14:51:39;2.40;;;2.25;;
1336;SDS011;662;48.814;9.318;2022-08-04T14:54:08;2.40;;;2.05;;
1336;SDS011;662;48.814;9.318;2022-08-04T14:56:34;5.15;;;2.42;;
1336;SDS011;662;48.814;9.318;2022-08-04T14:59:03;2.60;;;2.40;;
1336;SDS011;662;48.814;9.318;2022-08-04T15:01:32;2.72;;;2.53;;
1336;SDS011;662;48.814;9.318;2022-08-04T15:03:59;2.67;;;2.38;;
1336;SDS011;662;48.814;9.318;2022-08-04T15:06:27;2.78;;;2.58;;
1336;SDS011;662;48.814;9.318;2022-08-04T15:08:56;3.30;;;3.10;;
1336;SDS011;662;48.814;9.318;2022-08-04T15:11:24;2.60;;;2.38;;
1336;SDS011;662;48.814;9.318;2022-08-04T15:13:51;2.88;;;2.67;;
1336;SDS011;662;48.814;9.318;2022-08-04T15:16:18;3.90;;;2.70;;
1336;SDS011;662;48.814;9.318;2022-08-04T15:18:45;3.45;;;2.50;;
1336;SDS011;662;48.814;9.318;2022-08-04T15:21:11;2.80;;;2.60;;
1336;SDS011;662;48.814;9.318;2022-08-04T15:23:38;2.83;;;2.63;;
1336;SDS011;662;48.814;9.318;2022-08-04T15:26:04;3.40;;;3.20;;
1336;SDS011;662;48.814;9.318;2022-08-04T15:28:37;3.85;;;2.97;;
1336;SDS011;662;48.814;9.318;2022-08-04T15:31:05;2.70;;;2.50;;
1336;SDS011;662;48.814;9.318;2022-08-04T15:33:34;2.83;;;2.50;;
1336;SDS011;662;48.814;9.318;2022-08-04T15:36:09;2.55;;;2.35;;
1336;SDS011;662;48.814;9.318;2022-08-04T15:38:43;2.78;;;2.58;;
1336;SDS011;662;48.814;9.318;2022-08-04T15:41:52;2.80;;;2.60;;
1336;SDS011;662;48.814;9.318;2022-08-04T15:44:35;4.70;;;2.88;;
1336;SDS011;662;48.814;9.318;2022-08-04T15:47:15;4.60;;;2.70;;
1336;SDS011;662;48.814;9.318;2022-08-04T15:49:45;2.70;;;2.50;;
1336;SDS011;662;48.814;9.318;2022-08-04T15:53:00;2.50;;;2.30;;
1336;SDS011;662;48.814;9.318;2022-08-04T16:00:27;3.20;;;3.00;;
1336;SDS011;662;48.814;9.318;2022-08-04T16:22:12;2.80;;;2.60;;
1336;SDS011;662;48.814;9.318;2022-08-04T16:24:56;2.60;;;2.40;;
1336;SDS011;662;48.814;9.318;2022-08-04T16:27:34;2.53;;;2.40;;
1336;SDS011;662;48.814;9.318;2022-08-04T16:30:04;2.63;;;2.43;;
1336;SDS011;662;48.814;9.318;2022-08-04T16:32:49;2.80;;;2.60;;
1336;SDS011;662;48.814;9.318;2022-08-04T16:35:17;4.63;;;3.23;;
1336;SDS011;662;48.814;9.318;2022-08-04T16:38:00;3.60;;;2.90;;
1336;SDS011;662;48.814;9.318;2022-08-04T16:40:36;4.17;;;2.90;;
1336;SDS011;662;48.814;9.318;2022-08-04T16:43:06;3.37;;;3.17;;
1336;SDS011;662;48.814;9.318;2022-08-04T16:48:16;3.60;;;3.30;;
1336;SDS011;662;48.814;9.318;2022-08-04T16:53:12;4.23;;;2.67;;
1336;SDS011;662;48.814;9.318;2022-08-04T16:55:40;2.80;;;2.70;;
1336;SDS011;662;48.814;9.318;2022-08-04T16:58:10;3.60;;;2.40;;
1336;SDS011;662;48.814;9.318;2022-08-04T17:00:36;3.27;;;3.03;;
1336;SDS011;662;48.814;9.318;2022-08-04T17:03:03;5.03;;;2.40;;
1336;SDS011;662;48.814;9.318;2022-08-04T17:05:31;3.23;;;2.60;;
1336;SDS011;662;48.814;9.318;2022-08-04T17:07:58;3.60;;;2.80;;
1336;SDS011;662;48.814;9.318;2022-08-04T17:10:31;4.53;;;2.90;;
1336;SDS011;662;48.814;9.318;2022-08-04T17:13:01;2.73;;;2.53;;
1336;SDS011;662;48.814;9.318;2022-08-04T17:15:45;2.50;;;2.30;;
1336;SDS011;662;48.814;9.318;2022-08-04T17:18:13;2.87;;;2.73;;
1336;SDS011;662;48.814;9.318;2022-08-04T17:20:44;2.83;;;2.70;;
1336;SDS011;662;48.814;9.318;2022-08-04T17:25:56;3.23;;;2.93;;
1336;SDS011;662;48.814;9.318;2022-08-04T17:28:24;2.83;;;2.53;;
1336;SDS011;662;48.814;9.318;2022-08-04T17:30:50;3.00;;;2.80;;
1336;SDS011;662;48.814;9.318;2022-08-04T17:33:18;2.80;;;2.60;;
1336;SDS011;662;48.814;9.318;2022-08-04T17:35:44;2.63;;;2.50;;
1336;SDS011;662;48.814;9.318;2022-08-04T17:38:10;3.20;;;2.90;;
1336;SDS011;662;48.814;9.318;2022-08-04T17:48:58;3.83;;;3.53;;
1336;SDS011;662;48.814;9.318;2022-08-04T17:51:31;4.00;;;3.43;;
1336;SDS011;662;48.814;9.318;2022-08-04T17:54:19;4.83;;;2.97;;
1336;SDS011;662;48.814;9.318;2022-08-04T17:56:54;3.27;;;2.97;;
1336;SDS011;662;48.814;9.318;2022-08-04T18:07:11;27.63;;;4.20;;
1336;SDS011;662;48.814;9.318;2022-08-04T18:14:51;5.47;;;3.50;;
1336;SDS011;662;48.814;9.318;2022-08-04T18:17:32;6.67;;;3.50;;
1336;SDS011;662;48.814;9.318;2022-08-04T18:20:10;8.50;;;4.07;;
1336;SDS011;662;48.814;9.318;2022-08-04T18:22:40;4.40;;;3.83;;
1336;SDS011;662;48.814;9.318;2022-08-04T18:25:09;4.00;;;2.90;;
1336;SDS011;662;48.814;9.318;2022-08-04T18:27:47;3.70;;;3.30;;
1336;SDS011;662;48.814;9.318;2022-08-04T18:30:14;3.33;;;3.03;;
1336;SDS011;662;48.814;9.318;2022-08-04T18:32:41;3.77;;;3.47;;
1336;SDS011;662;48.814;9.318;2022-08-04T18:35:07;3.37;;;3.10;;
1336;SDS011;662;48.814;9.318;2022-08-04T18:37:33;3.33;;;3.03;;
1336;SDS011;662;48.814;9.318;2022-08-04T18:40:00;3.90;;;3.50;;
1336;SDS011;662;48.814;9.318;2022-08-04T18:42:26;5.07;;;3.70;;
1336;SDS011;662;48.814;9.318;2022-08-04T18:44:52;4.20;;;3.30;;
1336;SDS011;662;48.814;9.318;2022-08-04T18:47:20;3.47;;;3.27;;
1336;SDS011;662;48.814;9.318;2022-08-04T18:49:46;5.23;;;3.27;;
1336;SDS011;662;48.814;9.318;2022-08-04T18:52:12;4.27;;;3.70;;
1336;SDS011;662;48.814;9.318;2022-08-04T18:54:38;3.70;;;3.40;;
1336;SDS011;662;48.814;9.318;2022-08-04T18:57:03;3.40;;;3.10;;
1336;SDS011;662;48.814;9.318;2022-08-04T18:59:29;3.87;;;3.57;;
1336;SDS011;662;48.814;9.318;2022-08-04T19:01:54;3.80;;;3.50;;
1336;SDS011;662;48.814;9.318;2022-08-04T19:04:20;5.47;;;4.97;;
1336;SDS011;662;48.814;9.318;2022-08-04T19:06:46;5.40;;;3.97;;
1336;SDS011;662;48.814;9.318;2022-08-04T19:09:11;4.70;;;3.47;;
1336;SDS011;662;48.814;9.318;2022-08-04T19:11:38;4.03;;;3.60;;
1336;SDS011;662;48.814;9.318;2022-08-04T19:14:04;4.40;;;4.00;;
1336;SDS011;662;48.814;9.318;2022-08-04T19:16:31;5.10;;;4.60;;
1336;SDS011;662;48.814;9.318;2022-08-04T19:18:57;5.93;;;4.20;;
1336;SDS011;662;48.814;9.318;2022-08-04T19:21:24;4.90;;;4.40;;
1336;SDS011;662;48.814;9.318;2022-08-04T19:23:51;4.70;;;4.37;;
1336;SDS011;662;48.814;9.318;2022-08-04T19:26:18;6.73;;;4.80;;
1336;SDS011;662;48.814;9.318;2022-08-04T19:28:44;4.37;;;4.07;;
1336;SDS011;662;48.814;9.318;2022-08-04T19:31:09;4.70;;;4.20;;
1336;SDS011;662;48.814;9.318;2022-08-04T19:33:36;4.87;;;4.37;;
1336;SDS011;662;48.814;9.318;2022-08-04T19:36:03;5.60;;;3.70;;
1336;SDS011;662;48.814;9.318;2022-08-04T19:38:29;5.53;;;4.77;;
1336;SDS011;662;48.814;9.318;2022-08-04T19:40:55;6.43;;;4.33;;
1336;SDS011;662;48.814;9.318;2022-08-04T19:43:21;4.80;;;3.90;;
1336;SDS011;662;48.814;9.318;2022-08-04T19:45:47;4.80;;;4.27;;
1336;SDS011;662;48.814;9.318;2022-08-04T19:48:13;5.20;;;4.53;;
1336;SDS011;662;48.814;9.318;2022-08-04T19:50:38;4.57;;;4.13;;
1336;SDS011;662;48.814;9.318;2022-08-04T19:53:04;7.10;;;4.30;;
1336;SDS011;662;48.814;9.318;2022-08-04T19:55:30;7.80;;;4.70;;
1336;SDS011;662;48.814;9.318;2022-08-04T19:58:01;5.70;;;3.93;;
1336;SDS011;662;48.814;9.318;2022-08-04T20:00:28;5.23;;;3.93;;
1336;SDS011;662;48.814;9.318;2022-08-04T20:02:54;5.00;;;4.13;;
1336;SDS011;662;48.814;9.318;2022-08-04T20:05:20;5.23;;;3.37;;
1336;SDS011;662;48.814;9.318;2022-08-04T20:07:46;6.50;;;3.90;;
1336;SDS011;662;48.814;9.318;2022-08-04T20:10:12;5.37;;;3.63;;
1336;SDS011;662;48.814;9.318;2022-08-04T20:12:38;5.80;;;3.70;;
1336;SDS011;662;48.814;9.318;2022-08-04T20:15:05;6.33;;;4.03;;
1336;SDS011;662;48.814;9.318;2022-08-04T20:17:31;7.10;;;4.00;;
1336;SDS011;662;48.814;9.318;2022-08-04T20:19:57;3.50;;;3.20;;
1336;SDS011;662;48.814;9.318;2022-08-04T20:22:23;3.83;;;3.40;;
1336;SDS011;662;48.814;9.318;2022-08-04T20:24:49;4.50;;;4.10;;
1336;SDS011;662;48.814;9.318;2022-08-04T20:27:15;3.70;;;3.50;;
1336;SDS011;662;48.814;9.318;2022-08-04T20:29:44;7.13;;;3.93;;
1336;SDS011;662;48.814;9.318;2022-08-04T20:32:11;4.13;;;3.83;;
1336;SDS011;662;48.814;9.318;2022-08-04T20:34:37;4.23;;;3.80;;
1336;SDS011;662;48.814;9.318;2022-08-04T20:37:03;3.83;;;3.53;;
1336;SDS011;662;48.814;9.318;2022-08-04T20:39:29;4.13;;;3.73;;
1336;SDS011;662;48.814;9.318;2022-08-04T20:41:55;3.90;;;3.60;;
1336;SDS011;662;48.814;9.318;2022-08-04T20:44:20;3.97;;;3.57;;
1336;SDS011;662;48.814;9.318;2022-08-04T20:46:46;4.77;;;3.70;;
1336;SDS011;662;48.814;9.318;2022-08-04T20:49:11;4.30;;;3.90;;
1336;SDS011;662;48.814;9.318;2022-08-04T20:51:40;3.53;;;3.23;;